MET'MAP v2.0
soon released !

Expected late october,
this new version will be
more efficient, smarter,
and hosted on a brand new
server x3 powerfull...
...and still free !


Not compatible ?
Try the mobile version !

LOG IN : | Subscribe | Disclaimer | Who is Orbifly ? |
ICAO code :

TAF - LFLP Annecy - 02 Jul 2020 18:02 UTC
Data Sources :     NOAA   


- Airport Elevation : 1521 ft
- IATA code : NCY
- No reported NOTAMs.


LFLP - Annecy

Latest METAR recorded : 2015/08/11 08:00 LFLP 110800Z AUTO VRB02KT 9999 BKN024 22/17 Q1017
TAF TAF LFLP
Valid from the 02 at 15:00 until the 03 at 15:00 UTC


021400Z 0215/0315 32010KT 9999 FEW040 SCT080
PROB30
TEMPO 0215/0219 VRB12G25KT TSRA SCT040CB
BECMG 0222/0224 VRB03KT
BECMG 0308/0310 02010KT

Source NOAA


MET'MAP, your aeronautical weather chart ! - Copyright ORBIFLY December 2007

Programming & Development : Alexandra Zaïnal
Co-Developer : Marc-Olivier Méhu
Technical & hardware support : Manuel Goepfert
Concept & Financing : Baudouin d'Aumeries